Jersey City, NJ (07302)

2:25 AM EDT on August 04, 2015 (GMT -0400)
NJWxNet | | Change Station
CLOSE
Current Station
Personal Weather Station
Location: Jersey City, NJ
Elevation: 6 ft
Nearby Weather Stations

Elev 6 ft 40.71 °N, 74.05 °W | Updated 30 minutes ago

Scattered Clouds
Scattered Clouds
76 °F
Feels Like 77 °F
N
2
Wind Variable Wind from SSE
Gusts 3.0 mph

Today
High -- | Low -- °F
--% Chance of Precip.
Yesterday
High -- | Low -- °F
Precip. -- in
5:55 AM 8:08 PM
Waning Gibbous, 80% visible
Pressure 29.83 in
Visibility 10.0 miles
Clouds Scattered Clouds 12000 ft
Heat Index 77 °F
Dew Point 68 °F
Humidity 77%
Rainfall in
Snow Depth Not available.
UV 0 out of 12
Pollen 7.80 out of 12
Air Quality Not available.
Flu Activity Not available.
METAR KJRB 040615Z AUTO 26004KT 10SM SCT120 26/21 A2983 RMK AO1 LTG DSNT SW

More Conditions Fewer Conditions

Pressure 29.83 in
Visibility 10.0 miles
Clouds Scattered Clouds 12000 ft
Heat Index 77 °F
Dew Point 68 °F
Humidity 77%
Rainfall in
Snow Depth Not available.
UV 0 out of 12
Pollen 7.80 out of 12
Air Quality Not available.
Flu Activity Not available.
METAR KJRB 040615Z AUTO 26004KT 10SM SCT120 26/21 A2983 RMK AO1 LTG DSNT SW

More Conditions Fewer Conditions

Nowcast | as of 1:32 am EDT on August 4, 2015

At 127 am EDT...Doppler radar indicated indicated an area of showers and thunderstorms just west of Philadelphia moving northeast at 25 mph. These showers and storms will move into the region between 4 and 5 am. Lat...Lon 4060 7422 4060 7446 4089 7434 4094 7391 4088 7378 4075 7370 4062 7379 4059 7374 4054 7394 4057 7387 4058 7388 4057 7401 4071 7401 4067 7410 4059 7406 4051 7420 4050 7426

×

10-Day Weather Forecast

×

Almanac

Astronomy

Aug. 04, 2015 Rise Set
Actual Time
Civil Twilight
Nautical Twilight
Astronomical Twilight
Moon
Length of Visible Light
Length of Day
Tomorrow will be .
, % of the Moon is Illuminated

Today's Extremes

State Highs State Lows

Community

WunderPhotos

Upload Photos

1,843,870 photos uploaded!

WunderBlogs® & News

Nearby

Air Quality

  Air Quality AQ Index Pollutant
Not available.

Snow Depth

Station Depth Elevation

Earthquake Activity

City Distance Mag. Time & Date
Minimum magnitude displayed is 2.5.

Coastal Water Temperatures

Place Temperature

Stations

Nearby Weather Stations

Station Location Temp. Windchill Dew Point Humidity Wind Precip. Elev Updated Type